Maria Stein, Ohio
Current Conditions -  °F | °C
As of 1:14 PM on Tuesday 21 Oct 2014 (Local Time) from KAXV Reporting Station
Light Rain Light Rain  
Wind Chill: 42°   Ceiling: 1000
Heat Index: 46°   Visibility: 3mi
Dew Point: 46°   Wind: 8mph
Humidity: 100%   Direction: 330°NNW
Pressure: 30.05"   Gusts: NA
Location:  40.41°N, 84.49°W
Report Text: KAXV 211714Z AUTO 33007KT 3SM -RA OVC010 08/08 A3005 RMK AO2
Loading
Personal Weather Stations






























Interactive Weather Map
Tropical Storm Tracking
New forecast layout! Learn more

10-Day Weather Forecast

Advertisements
Track Severe Weather on mobile